• Join FlightAware (Why Join?)
  • Login
  • US Flag 
02:02PM EDT


 

Airport Tracker/Info


-or-


 

Live Flight TrackerFlight Track Log ✈ UPS2592 ✈ 11-Nov-2013 ✈ KSDF - KBIL

Flight Track Log - Related Links

Times and Time Zones

All times are in EST time to prevent confusion due to time zone crossing. See the UPS2592 flight status page for this flight to view local times or setup timezone preferences in your user account.

Time Position Orientation Groundspeed Altitude Reporting Facility
EST Latitude Longitude Course Direction KTS MPH feet Rate Location/Type
04:19PM 38.1820 -85.7470 218° Southwest 70 81  Level FlightAware
04:19PM 38.1600 -85.7390 164° South 173 199 1,200 2,520 Climbing FlightAware
04:20PM 38.1380 -85.7300 162° South 193 222 2,600 2,280 Climbing FlightAware
04:20PM 38.1160 -85.7290 178° South 229 264 3,100 2,340 Climbing FlightAware
04:21PM 38.0910 -85.7420 202° Southwest 222 255 4,500 3,180 Climbing FlightAware
04:21PM 38.0780 -85.7710 240° Southwest 223 257 5,900 3,480 Climbing FlightAware
04:22PM 38.0770 -85.7980 267° West 225 259 7,200 3,240 Climbing FlightAware
04:22PM 38.0860 -85.8300 290° West 255 293 8,400 2,700 Climbing FlightAware
04:22PM 38.1190 -85.8480 337° Northwest 284 327 9,700 2,280 Climbing FlightAware
04:23PM 38.1460 -85.8530 352° North 306 352 10,300 1,620 Climbing FlightAware
04:24PM 38.2500 -85.8750 351° North 376 433 12,000 2,040 Climbing FlightAware
04:24PM 38.2980 -85.8880 348° North 378 435 13,500 2,700 Climbing FlightAware
04:25PM 38.3950 -85.9310 341° North 377 434 16,000 2,520 Climbing FlightAware
04:26PM 38.4600 -86.0070 318° Northwest 384 442 18,100 2,460 Climbing FlightAware
04:27PM 38.4910 -86.0440 317° Northwest 388 447 19,100 2,220 Climbing FlightAware
04:27PM 38.5680 -86.1350 317° Northwest 400 460 21,200 1,980 Climbing FlightAware
04:28PM 38.6310 -86.2110 317° Northwest 412 474 22,600 1,860 Climbing FlightAware
04:29PM 38.7090 -86.3030 317° Northwest 420 483 24,400 1,800 Climbing FlightAware
04:30PM 38.7530 -86.3560 317° Northwest 427 491 25,600 1,500 Climbing FlightAware
04:31PM 38.8820 -86.5110 317° Northwest 436 502 27,500 1,740 Climbing FlightAware
04:32PM 38.9270 -86.5650 317° Northwest 430 495 28,700 1,800 Climbing FlightAware
04:33PM 39.0370 -86.6980 317° Northwest 425 489 30,800 1,500 Climbing FlightAware
04:34PM 39.1130 -86.7900 317° Northwest 421 484 32,000 900 Climbing FlightAware
04:34PM 39.1520 -86.8360 318° Northwest 417 480 32,000  Level FlightAware
04:35PM 39.2390 -86.9430 316° Northwest 409 471 32,000  Level FlightAware
04:36PM 39.2920 -87.0080 317° Northwest 412 474 32,000  Level FlightAware
04:37PM 39.3620 -87.0930 317° Northwest 412 474 32,000  Level FlightAware
04:38PM 39.4380 -87.1870 316° Northwest 405 466 32,000  Level FlightAware
04:38PM 39.4790 -87.2370 317° Northwest 403 464 32,000  Level FlightAware
04:39PM 39.5210 -87.2960 313° West 402 463 32,000  Level FlightAware
04:40PM 39.5880 -87.3920 312° West 407 468 32,000  Level FlightAware
04:40PM 39.6420 -87.4710 312° West 405 466 32,000  Level FlightAware
04:41PM 39.7120 -87.5730 312° West 403 464 32,000  Level FlightAware
04:42PM 39.7820 -87.6750 312° West 403 464 32,000 60 Level FlightAware
04:43PM 39.8160 -87.7250 312° West 401 461 32,100  Climbing FlightAware
04:43PM 39.8581 -87.7877 311° West 399 459 32,000 -120 Descending FlightAware ADS-B (KPWK)
04:44PM 39.9330 -87.8980 312° West 397 457 32,000  Level FlightAware
04:45PM 40.0034 -88.0042 311° West 395 455 32,000  Level FlightAware ADS-B (KPWK)
04:46PM 40.0511 -88.0946 305° West 394 453 32,000  Level FlightAware ADS-B (KPWK)
04:47PM 40.0930 -88.1770 304° West 394 453 32,000  Level FlightAware
04:48PM 40.1500 -88.2890 304° West 394 453 32,000  Level FlightAware
04:48PM 40.1679 -88.3227 305° West 390 449 32,000  Level FlightAware ADS-B (KPWK)
04:50PM 40.2572 -88.4985 304° West 393 452 32,100  Climbing FlightAware ADS-B (KPWK)
04:51PM 40.3176 -88.6185 303° West 389 448 32,000 -60 Descending FlightAware ADS-B (KPWK)
04:51PM 40.3698 -88.7219 304° West 389 448 32,000  Level FlightAware ADS-B (KPWK)
04:52PM 40.4001 -88.7820 303° West 389 448 32,000  Level FlightAware ADS-B (KPWK)
04:53PM 40.4570 -88.8950 304° West 388 447 32,000  Level FlightAware
04:54PM 40.5110 -89.0040 303° West 389 448 32,000  Level FlightAware
04:54PM 40.5187 -89.0197 303° West 391 450 32,000  Level FlightAware ADS-B (KPWK)
04:55PM 40.5660 -89.1140 303° West 390 449 32,000  Level FlightAware
04:55PM 40.6063 -89.1960 303° West 392 451 32,000  Level FlightAware ADS-B (KPWK)
04:57PM 40.6720 -89.3280 303° West 390 449 32,000  Level FlightAware
04:57PM 40.7000 -89.3850 303° West 388 447 32,000  Level FlightAware
04:58PM 40.7330 -89.4520 303° West 388 447 32,000  Level FlightAware
04:58PM 40.7800 -89.5490 303° West 387 445 32,000  Level FlightAware
04:59PM 40.8330 -89.6560 303° West 385 443 32,000  Level FlightAware
05:00PM 40.8580 -89.7070 303° West 384 442 32,000  Level FlightAware
05:00PM 40.8910 -89.7760 302° West 385 443 32,000  Level FlightAware
05:01PM 40.9310 -89.8590 303° West 384 442 32,000  Level FlightAware
05:01PM 40.9541 -89.9064 303° West 384 442 32,000  Level FlightAware ADS-B (KPWK)
05:02PM 41.0120 -90.0260 303° West 382 440 32,000  Level FlightAware
05:03PM 41.0520 -90.1030 305° West 382 440 32,000  Level FlightAware
05:04PM 41.1000 -90.1980 304° West 381 438 32,000  Level FlightAware
05:05PM 41.1550 -90.3050 304° West 381 438 32,000  Level FlightAware
05:06PM 41.2040 -90.4030 304° West 381 438 32,000  Level FlightAware
05:07PM 41.2730 -90.5190 308° West 385 443 32,000  Level FlightAware
05:07PM 41.3290 -90.6020 312° West 385 443 32,000  Level FlightAware
05:08PM 41.3830 -90.6810 312° West 383 441 32,000  Level FlightAware
05:09PM 41.4160 -90.7310 311° West 383 441 32,000  Level FlightAware
05:10PM 41.4880 -90.8370 312° West 382 440 32,000  Level FlightAware
05:11PM 41.5440 -90.9210 312° West 382 440 32,000  Level FlightAware
05:11PM 41.5900 -90.9890 312° West 383 441 32,000  Level FlightAware
05:12PM 41.6500 -91.0800 311° West 383 441 32,000  Level FlightAware
05:13PM 41.7090 -91.1690 312° West 380 437 32,000  Level FlightAware
05:14PM 41.7700 -91.2610 312° West 380 437 32,000  Level FlightAware
05:14PM 41.8200 -91.3360 312° West 381 438 32,000  Level FlightAware
05:15PM 41.8550 -91.3890 312° West 380 437 32,000  Level FlightAware
05:16PM 41.9077 -91.4697 311° West 379 436 32,000  Level FlightAware ADS-B
05:16PM 41.9505 -91.5351 311° West 378 435 32,000  Level FlightAware ADS-B
05:17PM 42.0044 -91.6172 311° West 377 434 32,000  Level FlightAware ADS-B
05:18PM 42.0478 -91.6838 311° West 379 436 32,000  Level FlightAware ADS-B
05:18PM 42.0966 -91.7588 311° West 379 436 32,000  Level FlightAware ADS-B
05:19PM 42.1422 -91.8290 311° West 379 436 32,000  Level FlightAware ADS-B
05:20PM 42.1868 -91.8976 311° West 379 436 32,000  Level FlightAware ADS-B
05:20PM 42.2228 -91.9534 311° West 379 436 32,000  Level FlightAware ADS-B
05:21PM 42.2783 -92.0394 311° West 378 435 32,000  Level FlightAware ADS-B
05:22PM 42.3057 -92.0818 311° West 376 433 32,000  Level FlightAware ADS-B
05:22PM 42.3654 -92.1747 311° West 374 430 32,000  Level FlightAware ADS-B
05:23PM 42.4292 -92.2742 311° West 372 428 32,000  Level FlightAware ADS-B
05:24PM 42.4685 -92.3360 311° West 370 426 32,000  Level FlightAware ADS-B
05:25PM 42.5234 -92.4221 311° West 368 423 32,000  Level FlightAware ADS-B
05:25PM 42.5628 -92.4844 311° West 365 420 32,000  Level FlightAware ADS-B
05:26PM 42.5971 -92.5385 311° West 365 420 32,000  Level FlightAware ADS-B
05:26PM 42.6427 -92.6106 311° West 365 420 32,000  Level FlightAware ADS-B
05:27PM 42.7000 -92.7020 310° West 362 417 32,000  Level FlightAware
05:28PM 42.7220 -92.7570 299° West 355 409 32,000  Level FlightAware
05:28PM 42.7424 -92.8154 295° West 355 409 32,000  Level FlightAware ADS-B
05:29PM 42.7669 -92.8855 295° West 353 406 32,000  Level FlightAware ADS-B
05:30PM 42.7990 -92.9750 296° West 352 405 32,000  Level FlightAware
05:30PM 42.8247 -93.0493 295° West 352 405 32,000  Level FlightAware ADS-B
05:31PM 42.8650 -93.1650 295° West 352 405 32,000  Level FlightAware
05:32PM 42.8907 -93.2377 296° West 352 405 32,000  Level FlightAware ADS-B
05:33PM 42.9290 -93.3480 295° West 350 403 32,000  Level FlightAware
05:34PM 42.9630 -93.4460 295° West 348 400 32,000  Level FlightAware
05:34PM 42.9960 -93.5400 296° West 346 398 32,000  Level FlightAware
05:34PM 42.9613 -93.4401 115° Southeast 344 396 32,000  Level FlightAware ADS-B
05:35PM 43.0400 -93.6680 295° West 344 396 32,000  Level FlightAware
05:36PM 43.0720 -93.7620 295° West 345 397 32,000  Level FlightAware
05:37PM 43.0990 -93.8390 296° West 344 396 32,000  Level FlightAware
05:38PM 43.1340 -93.9420 295° West 344 396 32,000  Level FlightAware
05:39PM 43.1720 -94.0530 295° West 342 394 32,000  Level FlightAware
05:39PM 43.1960 -94.1240 295° West 342 394 32,000  Level FlightAware
05:40PM 43.2350 -94.2420 294° West 343 395 32,000  Level FlightAware
05:41PM 43.2570 -94.3050 296° West 344 396 32,000 420 Level FlightAware
05:42PM 43.2910 -94.4070 295° West 346 398 32,600 900 Climbing FlightAware
05:42PM 43.3080 -94.4600 294° West 345 397 33,200 900 Climbing FlightAware
05:43PM 43.3280 -94.5180 295° West 351 404 33,500 480 Climbing FlightAware
05:44PM 43.3690 -94.6400 295° West 360 414 34,000 240 Climbing FlightAware
05:44PM 43.4030 -94.7430 294° West 359 413 34,000  Level FlightAware
05:45PM 43.4347 -94.8395 294° West 355 409 34,000  Level FlightAware ADS-B
05:46PM 43.4682 -94.9416 294° West 356 410 34,000  Level FlightAware ADS-B
05:47PM 43.5010 -95.0410 294° West 356 410 34,000  Level FlightAware
05:48PM 43.5311 -95.1337 294° West 357 411 34,000  Level FlightAware ADS-B
05:48PM 43.5564 -95.2117 294° West 357 411 34,000  Level FlightAware ADS-B
05:49PM 43.5953 -95.3316 294° West 357 411 34,000  Level FlightAware ADS-B
05:50PM 43.6171 -95.3994 294° West 356 410 34,000  Level FlightAware ADS-B
05:50PM 43.6411 -95.4737 294° West 357 411 34,000  Level FlightAware ADS-B
05:51PM 43.6613 -95.5362 294° West 357 411 34,000  Level FlightAware ADS-B
05:52PM 43.6930 -95.6350 294° West 356 410 34,000  Level FlightAware
05:52PM 43.7130 -95.6980 294° West 356 410 34,000  Level FlightAware
05:53PM 43.7450 -95.7980 294° West 357 411 34,000  Level FlightAware
05:53PM 43.7643 -95.8590 294° West 358 412 34,000  Level FlightAware ADS-B
05:54PM 43.8027 -95.9804 294° West 360 414 34,000  Level FlightAware ADS-B
05:55PM 43.8292 -96.0645 294° West 361 415 34,000  Level FlightAware ADS-B
05:56PM 43.8580 -96.1550 294° West 360 414 34,000  Level FlightAware
05:57PM 43.8900 -96.2580 293° West 361 415 34,000  Level FlightAware
05:57PM 43.9140 -96.3350 293° West 361 415 34,000  Level FlightAware
05:58PM 43.9400 -96.4200 293° West 360 414 34,000  Level FlightAware
05:58PM 43.9650 -96.4990 294° West 359 413 34,000  Level FlightAware
05:59PM 43.9850 -96.5650 293° West 358 412 34,000  Level FlightAware
06:00PM 44.0250 -96.6950 293° West 358 412 34,000  Level FlightAware
06:01PM 44.0580 -96.8040 293° West 359 413 34,000  Level FlightAware
06:02PM 44.0890 -96.9060 293° West 361 415 34,000  Level FlightAware
06:02PM 44.1000 -96.9390 295° West 361 415 34,000  Level FlightAware
06:03PM 44.1340 -97.0540 292° West 363 418 34,000  Level FlightAware
06:03PM 44.1530 -97.1170 293° West 364 419 34,000  Level FlightAware
06:04PM 44.1950 -97.2560 293° West 365 420 34,000  Level FlightAware
06:05PM 44.2220 -97.3460 293° West 367 422 34,000  Level FlightAware
06:06PM 44.2590 -97.4680 293° West 368 423 34,000  Level FlightAware
06:07PM 44.2960 -97.5930 293° West 369 425 34,000  Level FlightAware
06:08PM 44.3310 -97.7120 292° West 369 425 34,000  Level FlightAware
06:09PM 44.3610 -97.8140 292° West 369 425 34,000  Level FlightAware
06:09PM 44.3860 -97.8990 292° West 370 426 34,000  Level FlightAware
06:10PM 44.4080 -98.0100 286° West 371 427 34,000  Level FlightAware
06:11PM 44.4200 -98.0700 286° West 371 427 34,000  Level FlightAware
06:12PM 44.4550 -98.2430 286° West 373 429 34,000  Level FlightAware
06:13PM 44.4800 -98.3710 285° West 373 429 34,000  Level FlightAware
06:13PM 44.5020 -98.4840 285° West 373 429 34,000  Level FlightAware
06:14PM 44.5170 -98.5600 285° West 372 428 34,000  Level FlightAware
06:15PM 44.5430 -98.6910 286° West 373 429 34,000  Level FlightAware
06:16PM 44.5680 -98.8230 285° West 374 430 34,000  Level FlightAware
06:17PM 44.5960 -98.9650 286° West 378 435 34,000  Level FlightAware
06:18PM 44.6140 -99.0610 285° West 377 434 34,100  Climbing FlightAware
06:19PM 44.6390 -99.1910 285° West 379 436 34,000 -120 Descending FlightAware
06:19PM 44.6490 -99.2430 285° West 379 436 34,000  Level FlightAware
06:19PM 44.6620 -99.3150 284° West 379 436 34,000  Level FlightAware
06:20PM 44.6860 -99.4440 285° West 379 436 34,000  Level FlightAware
06:21PM 44.7050 -99.5460 285° West 379 436 34,000  Level FlightAware
06:22PM 44.7240 -99.6510 284° West 380 437 34,000  Level FlightAware
06:22PM 44.7280 -99.6690 287° West 382 440 34,000  Level FlightAware
06:23PM 44.7570 -99.8250 285° West 382 440 34,000  Level FlightAware
06:23PM 44.7700 -99.8990 284° West 383 441 34,000  Level FlightAware
06:24PM 44.7820 -99.9650 284° West 383 441 34,000  Level FlightAware
06:24PM 44.7970 -100.0450 285° West 384 442 34,000  Level FlightAware
06:25PM 44.8120 -100.1330 284° West 384 442 34,000  Level FlightAware
06:26PM 44.8210 -100.1820 285° West 384 442 34,000  Level FlightAware
06:26PM 44.8300 -100.2320 284° West 384 442 34,000  Level FlightAware
06:27PM 44.8510 -100.3540 284° West 384 442 34,000  Level FlightAware
06:28PM 44.8650 -100.4320 284° West 384 442 34,000  Level FlightAware
06:28PM 44.8830 -100.5320 284° West 384 442 34,000  Level FlightAware
06:29PM 44.9010 -100.6330 284° West 384 442 34,000  Level FlightAware
06:30PM 44.9180 -100.7320 284° West 384 442 34,000  Level FlightAware
06:31PM 44.9360 -100.8320 284° West 384 442 34,000  Level FlightAware
06:31PM 44.9440 -100.8810 283° West 384 442 34,000  Level FlightAware
06:32PM 44.9660 -101.0060 284° West 384 442 34,000  Level FlightAware
06:33PM 44.9840 -101.1050 284° West 384 442 34,000  Level FlightAware
06:33PM 44.9930 -101.1550 284° West 384 442 34,000  Level FlightAware
06:34PM 45.0100 -101.2560 283° West 384 442 34,000  Level FlightAware
06:35PM 45.0528 -101.5169 283° West 385 443 34,000  Level Salt Lake Center
06:36PM 45.0761 -101.6625 283° West 383 441 34,000  Level Salt Lake Center
06:37PM 45.1064 -101.8381 284° West 383 441 34,000  Level Salt Lake Center
06:38PM 45.1303 -101.9850 283° West 384 442 34,000  Level Salt Lake Center
06:38PM 45.1389 -102.0497 281° West 387 445 34,000  Level Minneapolis Center
06:39PM 45.1631 -102.1989 283° West 389 448 34,000  Level Minneapolis Center
06:40PM 45.1914 -102.3789 283° West 390 449 34,000  Level Minneapolis Center
06:41PM 45.2150 -102.5289 283° West 390 449 34,000  Level Minneapolis Center
06:42PM 45.2383 -102.6789 283° West 390 449 34,000  Level Minneapolis Center
06:43PM 45.2614 -102.8286 282° West 389 448 34,000  Level Minneapolis Center
06:45PM 45.2844 -102.9786 282° West 389 448 34,000  Level Minneapolis Center
06:46PM 45.3069 -103.1289 282° West 390 449 34,000  Level Minneapolis Center
06:47PM 45.3297 -103.2797 282° West 391 450 34,000  Level Minneapolis Center
06:48PM 45.3517 -103.4283 282° West 391 450 34,000  Level Minneapolis Center
06:49PM 45.3783 -103.6092 282° West 390 449 34,000  Level Minneapolis Center
06:50PM 45.4006 -103.7603 282° West 393 452 34,000  Level Minneapolis Center
06:51PM 45.4222 -103.9133 281° West 396 456 34,000  Level Minneapolis Center
06:52PM 45.4442 -104.0664 282° West 395 455 34,000  Level Minneapolis Center
06:57PM 45.5660 -104.9590 282° West 401 461 34,000  Level FlightAware
06:58PM 45.5820 -105.0820 281° West 403 464 34,000  Level FlightAware
06:59PM 45.5950 -105.1790 281° West 405 466 34,000  Level FlightAware
07:00PM 45.6100 -105.2980 280° West 406 467 34,000  Level FlightAware
07:00PM 45.6240 -105.4090 280° West 407 468 34,000  Level FlightAware
07:01PM 45.6330 -105.4760 281° West 408 470 34,000  Level FlightAware
07:02PM 45.6530 -105.6330 280° West 410 472 34,000  Level FlightAware
07:02PM 45.6700 -105.7700 280° West 411 473 34,000  Level FlightAware
07:03PM 45.6850 -105.8930 280° West 413 475 34,000  Level FlightAware
07:04PM 45.6930 -105.9520 281° West 413 475 34,000  Level FlightAware
07:05PM 45.7130 -106.1170 280° West 415 478 34,000 -540 Level FlightAware
07:05PM 45.7260 -106.2240 280° West 408 470 33,100 -1,680 Descending FlightAware
07:06PM 45.7400 -106.3470 279° West 399 459 31,600 -1,980 Descending FlightAware
07:06PM 45.7470 -106.4020 280° West 402 463 30,900 -2,340 Descending FlightAware
07:07PM 45.7590 -106.5070 279° West 410 472 29,300 -2,280 Descending FlightAware
07:08PM 45.7780 -106.6640 280° West 436 502 27,200 -2,160 Descending FlightAware
07:09PM 45.7890 -106.7590 279° West 428 493 26,100 -2,040 Descending FlightAware
07:09PM 45.8000 -106.8530 280° West 424 488 25,000 -2,100 Descending FlightAware
07:10PM 45.8160 -106.9980 279° West 431 496 23,100 -2,160 Descending FlightAware
07:11PM 45.8350 -107.1660 279° West 415 478 21,000 -2,100 Descending FlightAware
07:11PM 45.8400 -107.2070 280° West 413 475 20,500 -1,620 Descending FlightAware
07:12PM 45.8580 -107.3690 279° West 404 465 19,000 -1,440 Descending FlightAware
07:13PM 45.8740 -107.5120 279° West 393 452 17,800 -1,500 Descending FlightAware
07:14PM 45.8880 -107.6410 279° West 385 443 16,400 -2,220 Descending FlightAware
07:15PM 45.8830 -107.7600 267° West 387 445 14,200 -3,000 Descending FlightAware
07:16PM 45.8540 -107.8840 251° West 368 423 11,400 -2,340 Descending FlightAware
07:17PM 45.8360 -108.0020 258° West 302 348 10,100 -1,680 Descending FlightAware
07:17PM 45.8260 -108.0630 257° West 283 326 9,000 -1,980 Descending FlightAware
07:18PM 45.8170 -108.1130 256° West 268 308 8,100 -1,980 Descending FlightAware
07:18PM 45.8100 -108.1530 256° West 257 296 7,300 -1,980 Descending FlightAware
07:18PM 45.8070 -108.1710 257° West 253 291 6,900 -660 Descending FlightAware
07:19PM 45.8020 -108.2070 259° West 253 291 6,900 -600 Level FlightAware
07:20PM 45.7856 -108.3131 259° West 244 281 6,000 -780 Descending Salt Lake Center
07:21PM 45.7731 -108.3856 256° West 194 223 5,300 -720 Descending Salt Lake Center
07:22PM 45.7825 -108.4461 283° West 151 174 4,600 -780 Descending Salt Lake Center
07:23PM 45.7964 -108.4958 292° West 138 159 3,800 -780 Descending Salt Lake Center
07:25PM 45.8000 -108.5333 254° West  Level FlightAware Approximate